PORT of PETERHEAD

Country: United Kingdom Country: United Kingdom [GB]
Latitude / Longitude: 57.49838° / -1.781907° Show on Map
Local Time:  [UTC +1]
UN/LOCODE: GBPHD
Vessels in Port: 19
Expected Arrivals: 5

Recent Arrivals & Departures


Vessel Name
Arrival (UTC)
Arrival (LT)
Departure (UTC)
Departure (LT)
Vessel Type: Fishing  ONWARD PD349 2014-08-30 07:41:00 2014-08-30 08:41:00
Vessel Type: Tugs, Pilots etc  BLUE TOON 2014-08-30 07:22:00 2014-08-30 08:22:00
Vessel Type: Tugs, Pilots etc  BLUE TOON 2014-08-30 05:28:00 2014-08-30 06:28:00 2014-08-30 07:11:00 2014-08-30 08:11:00
Vessel Type: Yachts & Others  ZEEZEILER 2014-08-29 17:20:00 2014-08-29 18:20:00 2014-08-30 07:08:00 2014-08-30 08:08:00
Vessel Type: Tankers  SUPERIORITY 2014-08-29 18:11:00 2014-08-29 19:11:00 2014-08-30 06:33:00 2014-08-30 07:33:00
FRUITFUL VINE BF240 2014-08-30 05:11:00 2014-08-30 06:11:00 2014-08-30 05:50:00 2014-08-30 06:50:00
Vessel Type: Cargo Vessels  LADY MENNA 2014-08-30 05:32:00 2014-08-30 06:32:00
Vessel Type: Tugs, Pilots etc  BLUE TOON 2014-08-30 00:56:00 2014-08-30 01:56:00 2014-08-30 05:09:00 2014-08-30 06:09:00
Vessel Type: Cargo Vessels  ABIS BORDEAUX 2014-08-29 08:10:00 2014-08-29 09:10:00 2014-08-30 05:07:00 2014-08-30 06:07:00
Vessel Type: Cargo Vessels  FREYJA VIKING 2014-08-29 22:58:00 2014-08-29 23:58:00 2014-08-30 04:31:00 2014-08-30 05:31:00

Expected Arrivals


Vessel Name
Scheduled Arrival (UTC)
Scheduled Arrival (LT)
Estimated Arrival (UTC)
Estimated Arrival (LT)
Vessel Type: Cargo Vessels  FS AQUARIUS 2014-08-29 09:30:00 2014-08-29 10:30:00
Vessel Type: Yachts & Others  SEA FLYER 2014-08-30 02:00:00 2014-08-30 03:00:00
Vessel Type: Yachts & Others  HIGHLAND KNIGHT 2014-08-30 04:00:00 2014-08-30 05:00:00 2014-08-30 03:34:00 2014-08-30 04:34:00
Vessel Type: Cargo Vessels  LADY MENNA 2014-08-30 05:00:00 2014-08-30 06:00:00 2014-08-30 04:29:00 2014-08-30 05:29:00
Vessel Type: Cargo Vessels  MAERSK FETCHER 2014-09-01 00:00:00 2014-09-01 01:00:00 2014-08-31 21:32:00 2014-08-31 22:32:00

Wind Forecast


    
Time (UTC)
Speed
Direction
Temperature
2014-08-30 06:00:00 16 knots 289° 13°C
2014-08-30 09:00:00 18 knots 295° 13°C
2014-08-30 12:00:00 19 knots 300° 14°C
2014-08-30 15:00:00 21 knots 310° 14°C
2014-08-30 18:00:00 22 knots 314° 14°C
2014-08-30 21:00:00 23 knots 313° 13°C
2014-08-31 00:00:00 23 knots 318° 13°C
2014-08-31 03:00:00 21 knots 327° 13°C
2014-08-31 06:00:00 18 knots 335° 12°C
2014-08-31 09:00:00 15 knots 344° 12°C
2014-08-31 12:00:00 11 knots 342° 12°C
2014-08-31 15:00:00 3 knots 340° 12°C
2014-08-31 18:00:00 10 knots 163° 12°C
2014-08-31 21:00:00 17 knots 176° 12°C
2014-09-01 00:00:00 19 knots 192° 13°C
2014-09-01 03:00:00 18 knots 197° 13°C
2014-09-01 06:00:00 15 knots 217° 13°C